sensor_id;sensor_type;location;lat;lon;timestamp;temperature;humidity
7129;DHT22;3606;52.930;8.644;2023-10-09T00:01:49;12.90;99.90
7129;DHT22;3606;52.930;8.644;2023-10-09T00:04:15;12.90;99.90
7129;DHT22;3606;52.930;8.644;2023-10-09T00:06:45;12.90;99.90
7129;DHT22;3606;52.930;8.644;2023-10-09T00:09:12;12.80;99.90
7129;DHT22;3606;52.930;8.644;2023-10-09T00:11:49;12.70;99.90
7129;DHT22;3606;52.930;8.644;2023-10-09T00:14:22;12.70;99.90
7129;DHT22;3606;52.930;8.644;2023-10-09T00:16:47;12.60;99.90
7129;DHT22;3606;52.930;8.644;2023-10-09T00:19:22;12.60;99.90
7129;DHT22;3606;52.930;8.644;2023-10-09T00:21:56;12.60;99.90
7129;DHT22;3606;52.930;8.644;2023-10-09T00:24:24;12.50;99.90
7129;DHT22;3606;52.930;8.644;2023-10-09T00:26:53;12.50;99.90
7129;DHT22;3606;52.930;8.644;2023-10-09T00:29:36;12.40;99.90
7129;DHT22;3606;52.930;8.644;2023-10-09T00:32:08;12.40;99.90
7129;DHT22;3606;52.930;8.644;2023-10-09T00:34:44;12.50;99.90
7129;DHT22;3606;52.930;8.644;2023-10-09T00:37:10;12.50;99.90
7129;DHT22;3606;52.930;8.644;2023-10-09T00:39:38;12.50;99.90
7129;DHT22;3606;52.930;8.644;2023-10-09T00:42:04;12.50;99.90
7129;DHT22;3606;52.930;8.644;2023-10-09T00:44:32;12.50;99.90
7129;DHT22;3606;52.930;8.644;2023-10-09T00:47:09;12.50;99.90
7129;DHT22;3606;52.930;8.644;2023-10-09T00:49:51;12.40;99.90
7129;DHT22;3606;52.930;8.644;2023-10-09T00:52:26;12.40;99.90
7129;DHT22;3606;52.930;8.644;2023-10-09T00:55:01;12.30;99.90
7129;DHT22;3606;52.930;8.644;2023-10-09T00:57:30;12.20;99.90
7129;DHT22;3606;52.930;8.644;2023-10-09T00:59:59;12.20;99.90
7129;DHT22;3606;52.930;8.644;2023-10-09T01:02:27;12.20;99.90
7129;DHT22;3606;52.930;8.644;2023-10-09T01:05:04;12.30;99.90
7129;DHT22;3606;52.930;8.644;2023-10-09T01:07:45;12.30;99.90
7129;DHT22;3606;52.930;8.644;2023-10-09T01:10:11;12.20;99.90
7129;DHT22;3606;52.930;8.644;2023-10-09T01:15:39;12.20;99.90
7129;DHT22;3606;52.930;8.644;2023-10-09T01:18:09;12.20;99.90
7129;DHT22;3606;52.930;8.644;2023-10-09T01:20:35;12.30;99.90
7129;DHT22;3606;52.930;8.644;2023-10-09T01:23:09;12.30;99.90
7129;DHT22;3606;52.930;8.644;2023-10-09T01:25:34;12.30;99.90
7129;DHT22;3606;52.930;8.644;2023-10-09T01:28:09;12.30;99.90
7129;DHT22;3606;52.930;8.644;2023-10-09T01:30:34;12.30;99.90
7129;DHT22;3606;52.930;8.644;2023-10-09T01:33:00;12.40;99.90
7129;DHT22;3606;52.930;8.644;2023-10-09T01:35:38;12.40;99.90
7129;DHT22;3606;52.930;8.644;2023-10-09T01:38:12;12.30;99.90
7129;DHT22;3606;52.930;8.644;2023-10-09T01:40:39;12.30;99.90
7129;DHT22;3606;52.930;8.644;2023-10-09T01:43:05;12.30;99.90
7129;DHT22;3606;52.930;8.644;2023-10-09T01:45:38;12.40;99.90
7129;DHT22;3606;52.930;8.644;2023-10-09T01:48:12;12.30;99.90
7129;DHT22;3606;52.930;8.644;2023-10-09T01:50:40;12.30;99.90
7129;DHT22;3606;52.930;8.644;2023-10-09T01:53:08;12.20;99.90
7129;DHT22;3606;52.930;8.644;2023-10-09T01:55:34;12.20;99.90
7129;DHT22;3606;52.930;8.644;2023-10-09T01:58:07;12.20;99.90
7129;DHT22;3606;52.930;8.644;2023-10-09T02:00:47;12.20;99.90
7129;DHT22;3606;52.930;8.644;2023-10-09T02:03:20;12.30;99.90
7129;DHT22;3606;52.930;8.644;2023-10-09T02:05:50;12.40;99.90
7129;DHT22;3606;52.930;8.644;2023-10-09T02:08:17;12.40;99.90
7129;DHT22;3606;52.930;8.644;2023-10-09T02:10:47;12.40;99.90
7129;DHT22;3606;52.930;8.644;2023-10-09T02:13:13;12.30;99.90
7129;DHT22;3606;52.930;8.644;2023-10-09T02:15:56;12.20;99.90
7129;DHT22;3606;52.930;8.644;2023-10-09T02:18:24;12.20;99.90
7129;DHT22;3606;52.930;8.644;2023-10-09T02:23:25;12.30;99.90
7129;DHT22;3606;52.930;8.644;2023-10-09T02:25:59;12.30;99.90
7129;DHT22;3606;52.930;8.644;2023-10-09T02:28:30;12.20;99.90
7129;DHT22;3606;52.930;8.644;2023-10-09T02:31:10;12.20;99.90
7129;DHT22;3606;52.930;8.644;2023-10-09T02:33:36;12.20;99.90
7129;DHT22;3606;52.930;8.644;2023-10-09T02:36:07;12.20;99.90
7129;DHT22;3606;52.930;8.644;2023-10-09T02:38:33;12.20;99.90
7129;DHT22;3606;52.930;8.644;2023-10-09T02:41:01;12.20;99.90
7129;DHT22;3606;52.930;8.644;2023-10-09T02:43:31;12.30;99.90
7129;DHT22;3606;52.930;8.644;2023-10-09T02:46:06;12.30;99.90
7129;DHT22;3606;52.930;8.644;2023-10-09T02:48:47;12.30;99.90
7129;DHT22;3606;52.930;8.644;2023-10-09T02:51:28;12.20;99.90
7129;DHT22;3606;52.930;8.644;2023-10-09T02:54:01;12.30;99.90
7129;DHT22;3606;52.930;8.644;2023-10-09T02:56:53;12.20;99.90
7129;DHT22;3606;52.930;8.644;2023-10-09T02:59:31;12.30;99.90
7129;DHT22;3606;52.930;8.644;2023-10-09T03:01:57;12.30;99.90
7129;DHT22;3606;52.930;8.644;2023-10-09T03:04:25;12.30;99.90
7129;DHT22;3606;52.930;8.644;2023-10-09T03:06:59;12.30;99.90
7129;DHT22;3606;52.930;8.644;2023-10-09T03:09:26;12.20;99.90
7129;DHT22;3606;52.930;8.644;2023-10-09T03:11:57;12.30;99.90
7129;DHT22;3606;52.930;8.644;2023-10-09T03:14:35;12.20;99.90
7129;DHT22;3606;52.930;8.644;2023-10-09T03:17:01;12.20;99.90
7129;DHT22;3606;52.930;8.644;2023-10-09T03:19:28;12.20;99.90
7129;DHT22;3606;52.930;8.644;2023-10-09T03:21:54;12.20;99.90
7129;DHT22;3606;52.930;8.644;2023-10-09T03:24:23;12.20;99.90
7129;DHT22;3606;52.930;8.644;2023-10-09T03:26:48;12.20;99.90
7129;DHT22;3606;52.930;8.644;2023-10-09T03:29:21;12.20;99.90
7129;DHT22;3606;52.930;8.644;2023-10-09T03:31:47;12.20;99.90
7129;DHT22;3606;52.930;8.644;2023-10-09T03:34:12;12.20;99.90
7129;DHT22;3606;52.930;8.644;2023-10-09T03:36:38;12.20;99.90
7129;DHT22;3606;52.930;8.644;2023-10-09T03:39:07;12.20;99.90
7129;DHT22;3606;52.930;8.644;2023-10-09T03:41:45;12.10;99.90
7129;DHT22;3606;52.930;8.644;2023-10-09T03:44:14;12.20;99.90
7129;DHT22;3606;52.930;8.644;2023-10-09T03:46:39;12.20;99.90
7129;DHT22;3606;52.930;8.644;2023-10-09T03:49:09;12.20;99.90
7129;DHT22;3606;52.930;8.644;2023-10-09T03:51:37;12.20;99.90
7129;DHT22;3606;52.930;8.644;2023-10-09T03:54:03;12.10;99.90
7129;DHT22;3606;52.930;8.644;2023-10-09T03:56:35;12.10;99.90
7129;DHT22;3606;52.930;8.644;2023-10-09T03:59:01;12.20;99.90
7129;DHT22;3606;52.930;8.644;2023-10-09T04:01:29;12.20;99.90
7129;DHT22;3606;52.930;8.644;2023-10-09T04:03:58;12.20;99.90
7129;DHT22;3606;52.930;8.644;2023-10-09T04:06:28;12.20;99.90
7129;DHT22;3606;52.930;8.644;2023-10-09T04:09:09;12.20;99.90
7129;DHT22;3606;52.930;8.644;2023-10-09T04:11:47;12.20;99.90
7129;DHT22;3606;52.930;8.644;2023-10-09T04:14:15;12.20;99.90
7129;DHT22;3606;52.930;8.644;2023-10-09T04:16:57;12.20;99.90
7129;DHT22;3606;52.930;8.644;2023-10-09T04:19:51;12.20;99.90
7129;DHT22;3606;52.930;8.644;2023-10-09T04:22:39;12.20;99.90
7129;DHT22;3606;52.930;8.644;2023-10-09T04:25:15;12.30;99.90
7129;DHT22;3606;52.930;8.644;2023-10-09T04:27:41;12.30;99.90
7129;DHT22;3606;52.930;8.644;2023-10-09T04:30:07;12.30;99.90
7129;DHT22;3606;52.930;8.644;2023-10-09T04:32:33;12.30;99.90
7129;DHT22;3606;52.930;8.644;2023-10-09T04:35:00;12.20;99.90
7129;DHT22;3606;52.930;8.644;2023-10-09T04:37:45;12.30;99.90
7129;DHT22;3606;52.930;8.644;2023-10-09T04:40:18;12.30;99.90
7129;DHT22;3606;52.930;8.644;2023-10-09T04:43:03;12.40;99.90
7129;DHT22;3606;52.930;8.644;2023-10-09T04:45:38;12.50;99.90
7129;DHT22;3606;52.930;8.644;2023-10-09T04:48:12;12.40;99.90
7129;DHT22;3606;52.930;8.644;2023-10-09T04:50:58;12.40;99.90
7129;DHT22;3606;52.930;8.644;2023-10-09T04:53:44;12.40;99.90
7129;DHT22;3606;52.930;8.644;2023-10-09T04:56:13;12.50;99.90
7129;DHT22;3606;52.930;8.644;2023-10-09T04:58:41;12.40;99.90
7129;DHT22;3606;52.930;8.644;2023-10-09T05:01:07;12.40;99.90
7129;DHT22;3606;52.930;8.644;2023-10-09T05:03:39;12.40;99.90
7129;DHT22;3606;52.930;8.644;2023-10-09T05:06:05;12.50;99.90
7129;DHT22;3606;52.930;8.644;2023-10-09T05:08:49;12.40;99.90
7129;DHT22;3606;52.930;8.644;2023-10-09T05:11:15;12.60;99.90
7129;DHT22;3606;52.930;8.644;2023-10-09T05:13:59;12.60;99.90
7129;DHT22;3606;52.930;8.644;2023-10-09T05:16:38;12.60;99.90
7129;DHT22;3606;52.930;8.644;2023-10-09T05:19:20;12.60;99.90
7129;DHT22;3606;52.930;8.644;2023-10-09T05:22:10;12.70;99.90
7129;DHT22;3606;52.930;8.644;2023-10-09T05:24:58;12.60;99.90
7129;DHT22;3606;52.930;8.644;2023-10-09T05:27:24;12.60;99.90
7129;DHT22;3606;52.930;8.644;2023-10-09T05:30:08;12.60;99.90
7129;DHT22;3606;52.930;8.644;2023-10-09T05:32:53;12.60;99.90
7129;DHT22;3606;52.930;8.644;2023-10-09T05:35:45;12.60;99.90
7129;DHT22;3606;52.930;8.644;2023-10-09T05:38:31;12.70;99.90
7129;DHT22;3606;52.930;8.644;2023-10-09T05:41:01;12.70;99.90
7129;DHT22;3606;52.930;8.644;2023-10-09T05:43:46;12.70;99.90
7129;DHT22;3606;52.930;8.644;2023-10-09T05:46:30;12.70;99.90
7129;DHT22;3606;52.930;8.644;2023-10-09T05:49:01;12.80;99.90
7129;DHT22;3606;52.930;8.644;2023-10-09T05:51:35;12.80;99.90
7129;DHT22;3606;52.930;8.644;2023-10-09T05:54:07;12.90;99.90
7129;DHT22;3606;52.930;8.644;2023-10-09T05:56:51;12.80;99.90
7129;DHT22;3606;52.930;8.644;2023-10-09T05:59:45;12.90;99.90
7129;DHT22;3606;52.930;8.644;2023-10-09T06:02:31;12.90;99.90
7129;DHT22;3606;52.930;8.644;2023-10-09T06:05:15;13.00;99.90
7129;DHT22;3606;52.930;8.644;2023-10-09T06:07:59;13.00;99.90
7129;DHT22;3606;52.930;8.644;2023-10-09T06:10:32;13.00;99.90
7129;DHT22;3606;52.930;8.644;2023-10-09T06:13:06;13.00;99.90
7129;DHT22;3606;52.930;8.644;2023-10-09T06:15:38;13.10;99.90
7129;DHT22;3606;52.930;8.644;2023-10-09T06:18:13;13.20;99.90
7129;DHT22;3606;52.930;8.644;2023-10-09T06:20:51;13.20;99.90
7129;DHT22;3606;52.930;8.644;2023-10-09T06:23:35;13.20;99.90
7129;DHT22;3606;52.930;8.644;2023-10-09T06:26:19;13.20;99.90
7129;DHT22;3606;52.930;8.644;2023-10-09T06:28:51;13.30;99.90
7129;DHT22;3606;52.930;8.644;2023-10-09T06:31:37;13.20;99.90
7129;DHT22;3606;52.930;8.644;2023-10-09T06:34:22;13.30;99.90
7129;DHT22;3606;52.930;8.644;2023-10-09T06:37:01;13.30;99.90
7129;DHT22;3606;52.930;8.644;2023-10-09T06:39:45;13.30;99.90
7129;DHT22;3606;52.930;8.644;2023-10-09T06:42:26;13.30;99.90
7129;DHT22;3606;52.930;8.644;2023-10-09T06:45:06;13.30;99.90
7129;DHT22;3606;52.930;8.644;2023-10-09T06:47:34;13.30;99.90
7129;DHT22;3606;52.930;8.644;2023-10-09T06:50:10;13.40;99.90
7129;DHT22;3606;52.930;8.644;2023-10-09T06:52:54;13.40;99.90
7129;DHT22;3606;52.930;8.644;2023-10-09T06:55:27;13.50;99.90
7129;DHT22;3606;52.930;8.644;2023-10-09T06:58:14;13.50;99.90
7129;DHT22;3606;52.930;8.644;2023-10-09T07:00:42;13.60;99.90
7129;DHT22;3606;52.930;8.644;2023-10-09T07:03:39;13.60;99.90
7129;DHT22;3606;52.930;8.644;2023-10-09T07:06:18;13.60;99.90
7129;DHT22;3606;52.930;8.644;2023-10-09T07:08:54;13.60;99.90
7129;DHT22;3606;52.930;8.644;2023-10-09T07:11:50;13.70;99.90
7129;DHT22;3606;52.930;8.644;2023-10-09T07:14:21;13.70;99.90
7129;DHT22;3606;52.930;8.644;2023-10-09T07:16:56;13.70;99.90
7129;DHT22;3606;52.930;8.644;2023-10-09T07:19:23;13.80;99.90
7129;DHT22;3606;52.930;8.644;2023-10-09T07:22:03;13.90;99.90
7129;DHT22;3606;52.930;8.644;2023-10-09T07:24:32;13.90;99.90
7129;DHT22;3606;52.930;8.644;2023-10-09T07:27:09;13.90;99.90
7129;DHT22;3606;52.930;8.644;2023-10-09T07:29:38;13.90;99.90
7129;DHT22;3606;52.930;8.644;2023-10-09T07:32:19;14.00;99.90
7129;DHT22;3606;52.930;8.644;2023-10-09T07:34:50;14.00;99.90
7129;DHT22;3606;52.930;8.644;2023-10-09T07:37:28;14.00;99.90
7129;DHT22;3606;52.930;8.644;2023-10-09T07:40:02;14.00;99.90
7129;DHT22;3606;52.930;8.644;2023-10-09T07:42:32;14.00;99.90
7129;DHT22;3606;52.930;8.644;2023-10-09T07:45:07;14.10;99.90
7129;DHT22;3606;52.930;8.644;2023-10-09T07:47:49;14.10;99.90
7129;DHT22;3606;52.930;8.644;2023-10-09T07:50:28;14.10;99.90
7129;DHT22;3606;52.930;8.644;2023-10-09T07:53:07;14.20;99.90
7129;DHT22;3606;52.930;8.644;2023-10-09T07:55:51;14.20;99.90
7129;DHT22;3606;52.930;8.644;2023-10-09T07:58:21;14.30;99.90
7129;DHT22;3606;52.930;8.644;2023-10-09T08:00:54;14.30;99.90
7129;DHT22;3606;52.930;8.644;2023-10-09T08:03:33;14.40;99.90
7129;DHT22;3606;52.930;8.644;2023-10-09T08:06:01;14.50;99.90
7129;DHT22;3606;52.930;8.644;2023-10-09T08:08:52;14.50;99.90
7129;DHT22;3606;52.930;8.644;2023-10-09T08:11:36;14.60;99.90
7129;DHT22;3606;52.930;8.644;2023-10-09T08:14:11;14.60;99.90
7129;DHT22;3606;52.930;8.644;2023-10-09T08:16:56;14.70;99.90
7129;DHT22;3606;52.930;8.644;2023-10-09T08:19:45;14.80;99.90
7129;DHT22;3606;52.930;8.644;2023-10-09T08:22:27;14.80;99.90
7129;DHT22;3606;52.930;8.644;2023-10-09T08:24:53;14.70;99.90
7129;DHT22;3606;52.930;8.644;2023-10-09T08:27:24;14.70;99.90
7129;DHT22;3606;52.930;8.644;2023-10-09T08:30:12;14.80;99.90
7129;DHT22;3606;52.930;8.644;2023-10-09T08:32:47;14.70;99.90
7129;DHT22;3606;52.930;8.644;2023-10-09T08:35:31;14.70;99.90
7129;DHT22;3606;52.930;8.644;2023-10-09T08:38:01;14.80;99.90
7129;DHT22;3606;52.930;8.644;2023-10-09T08:40:35;14.80;99.90
7129;DHT22;3606;52.930;8.644;2023-10-09T08:43:13;14.80;99.90
7129;DHT22;3606;52.930;8.644;2023-10-09T08:45:41;14.80;99.90
7129;DHT22;3606;52.930;8.644;2023-10-09T08:48:11;14.80;99.90
7129;DHT22;3606;52.930;8.644;2023-10-09T08:50:44;14.90;99.90
7129;DHT22;3606;52.930;8.644;2023-10-09T08:53:11;14.90;99.90
7129;DHT22;3606;52.930;8.644;2023-10-09T08:55:37;14.90;99.90
7129;DHT22;3606;52.930;8.644;2023-10-09T08:58:07;14.90;99.90
7129;DHT22;3606;52.930;8.644;2023-10-09T09:00:44;15.00;99.90
7129;DHT22;3606;52.930;8.644;2023-10-09T09:03:12;15.10;99.90
7129;DHT22;3606;52.930;8.644;2023-10-09T09:05:37;15.10;99.90
7129;DHT22;3606;52.930;8.644;2023-10-09T09:08:03;15.10;99.90
7129;DHT22;3606;52.930;8.644;2023-10-09T09:10:29;15.10;99.90
7129;DHT22;3606;52.930;8.644;2023-10-09T09:13:02;15.20;99.90
7129;DHT22;3606;52.930;8.644;2023-10-09T09:15:29;15.30;99.90
7129;DHT22;3606;52.930;8.644;2023-10-09T09:18:06;15.30;99.90
7129;DHT22;3606;52.930;8.644;2023-10-09T09:20:32;15.40;99.90
7129;DHT22;3606;52.930;8.644;2023-10-09T09:23:02;15.40;99.90
7129;DHT22;3606;52.930;8.644;2023-10-09T09:25:45;15.60;99.90
7129;DHT22;3606;52.930;8.644;2023-10-09T09:28:16;15.60;99.90
7129;DHT22;3606;52.930;8.644;2023-10-09T09:30:47;15.60;99.90
7129;DHT22;3606;52.930;8.644;2023-10-09T09:33:24;15.70;99.90
7129;DHT22;3606;52.930;8.644;2023-10-09T09:36:06;15.70;99.90
7129;DHT22;3606;52.930;8.644;2023-10-09T09:38:34;15.80;99.90
7129;DHT22;3606;52.930;8.644;2023-10-09T09:41:08;15.80;99.90
7129;DHT22;3606;52.930;8.644;2023-10-09T09:43:36;15.70;99.90
7129;DHT22;3606;52.930;8.644;2023-10-09T09:46:06;15.70;99.90
7129;DHT22;3606;52.930;8.644;2023-10-09T09:48:42;15.70;99.90
7129;DHT22;3606;52.930;8.644;2023-10-09T09:51:13;15.70;99.90
7129;DHT22;3606;52.930;8.644;2023-10-09T09:53:43;15.70;99.90
7129;DHT22;3606;52.930;8.644;2023-10-09T09:56:14;15.70;99.90
7129;DHT22;3606;52.930;8.644;2023-10-09T09:58:46;15.70;99.90
7129;DHT22;3606;52.930;8.644;2023-10-09T10:01:19;15.70;99.90
7129;DHT22;3606;52.930;8.644;2023-10-09T10:03:59;15.70;99.90
7129;DHT22;3606;52.930;8.644;2023-10-09T10:06:28;15.70;99.90
7129;DHT22;3606;52.930;8.644;2023-10-09T10:08:57;15.70;99.90
7129;DHT22;3606;52.930;8.644;2023-10-09T10:11:45;15.70;99.90
7129;DHT22;3606;52.930;8.644;2023-10-09T10:14:14;15.70;99.90
7129;DHT22;3606;52.930;8.644;2023-10-09T10:17:00;15.70;99.90
7129;DHT22;3606;52.930;8.644;2023-10-09T10:19:59;15.70;99.90
7129;DHT22;3606;52.930;8.644;2023-10-09T10:22:29;15.80;99.90
7129;DHT22;3606;52.930;8.644;2023-10-09T10:24:59;15.80;99.90
7129;DHT22;3606;52.930;8.644;2023-10-09T10:27:28;15.90;99.90
7129;DHT22;3606;52.930;8.644;2023-10-09T10:33:01;15.90;99.90
7129;DHT22;3606;52.930;8.644;2023-10-09T10:35:35;15.90;99.90
7129;DHT22;3606;52.930;8.644;2023-10-09T10:38:34;15.80;99.90
7129;DHT22;3606;52.930;8.644;2023-10-09T10:41:12;15.90;99.90
7129;DHT22;3606;52.930;8.644;2023-10-09T10:43:43;15.80;99.90
7129;DHT22;3606;52.930;8.644;2023-10-09T10:46:18;15.90;99.90
7129;DHT22;3606;52.930;8.644;2023-10-09T10:48:58;16.00;99.90
7129;DHT22;3606;52.930;8.644;2023-10-09T10:51:29;16.00;99.90
7129;DHT22;3606;52.930;8.644;2023-10-09T10:54:08;16.00;99.90
7129;DHT22;3606;52.930;8.644;2023-10-09T10:56:52;16.00;99.90
7129;DHT22;3606;52.930;8.644;2023-10-09T10:59:19;16.00;99.90
7129;DHT22;3606;52.930;8.644;2023-10-09T11:01:52;16.00;99.90
7129;DHT22;3606;52.930;8.644;2023-10-09T11:04:25;16.00;99.90
7129;DHT22;3606;52.930;8.644;2023-10-09T11:07:02;16.10;99.90
7129;DHT22;3606;52.930;8.644;2023-10-09T11:09:57;16.10;99.90
7129;DHT22;3606;52.930;8.644;2023-10-09T11:12:43;16.10;99.90
7129;DHT22;3606;52.930;8.644;2023-10-09T11:15:38;16.10;99.90
7129;DHT22;3606;52.930;8.644;2023-10-09T11:18:11;16.10;99.90
7129;DHT22;3606;52.930;8.644;2023-10-09T11:20:50;16.10;99.90
7129;DHT22;3606;52.930;8.644;2023-10-09T11:23:24;16.20;99.90
7129;DHT22;3606;52.930;8.644;2023-10-09T11:25:59;16.20;99.90
7129;DHT22;3606;52.930;8.644;2023-10-09T11:28:44;16.30;99.90
7129;DHT22;3606;52.930;8.644;2023-10-09T11:31:23;16.30;99.90
7129;DHT22;3606;52.930;8.644;2023-10-09T11:33:49;16.40;99.90
7129;DHT22;3606;52.930;8.644;2023-10-09T11:36:25;16.30;99.90
7129;DHT22;3606;52.930;8.644;2023-10-09T11:38:58;16.30;99.90
7129;DHT22;3606;52.930;8.644;2023-10-09T11:41:43;16.30;99.90
7129;DHT22;3606;52.930;8.644;2023-10-09T11:44:10;16.40;99.90
7129;DHT22;3606;52.930;8.644;2023-10-09T11:46:58;16.40;99.90
7129;DHT22;3606;52.930;8.644;2023-10-09T11:49:23;16.50;99.90
7129;DHT22;3606;52.930;8.644;2023-10-09T11:52:07;16.50;99.90
7129;DHT22;3606;52.930;8.644;2023-10-09T11:54:38;16.60;99.90
7129;DHT22;3606;52.930;8.644;2023-10-09T11:57:04;16.50;99.90
7129;DHT22;3606;52.930;8.644;2023-10-09T11:59:31;16.60;99.90
7129;DHT22;3606;52.930;8.644;2023-10-09T12:02:04;16.70;99.90
7129;DHT22;3606;52.930;8.644;2023-10-09T12:04:30;16.70;99.90
7129;DHT22;3606;52.930;8.644;2023-10-09T12:06:56;16.70;99.90
7129;DHT22;3606;52.930;8.644;2023-10-09T12:09:38;16.80;99.90
7129;DHT22;3606;52.930;8.644;2023-10-09T12:12:07;16.80;99.90
7129;DHT22;3606;52.930;8.644;2023-10-09T12:14:36;16.80;99.90
7129;DHT22;3606;52.930;8.644;2023-10-09T12:17:07;16.80;99.90
7129;DHT22;3606;52.930;8.644;2023-10-09T12:19:36;16.80;99.90
7129;DHT22;3606;52.930;8.644;2023-10-09T12:22:04;16.70;99.90
7129;DHT22;3606;52.930;8.644;2023-10-09T12:24:31;16.70;99.90
7129;DHT22;3606;52.930;8.644;2023-10-09T12:26:57;16.80;99.90
7129;DHT22;3606;52.930;8.644;2023-10-09T12:29:23;16.70;99.90
7129;DHT22;3606;52.930;8.644;2023-10-09T12:31:50;16.70;99.90
7129;DHT22;3606;52.930;8.644;2023-10-09T12:34:26;16.60;99.90
7129;DHT22;3606;52.930;8.644;2023-10-09T12:36:56;16.70;99.90
7129;DHT22;3606;52.930;8.644;2023-10-09T12:39:22;16.70;99.90
7129;DHT22;3606;52.930;8.644;2023-10-09T12:41:48;16.70;99.90
7129;DHT22;3606;52.930;8.644;2023-10-09T12:44:14;16.70;99.90
7129;DHT22;3606;52.930;8.644;2023-10-09T12:46:45;16.70;99.90
7129;DHT22;3606;52.930;8.644;2023-10-09T12:49:21;16.70;99.90
7129;DHT22;3606;52.930;8.644;2023-10-09T12:51:54;16.70;99.90
7129;DHT22;3606;52.930;8.644;2023-10-09T12:54:19;16.70;99.90
7129;DHT22;3606;52.930;8.644;2023-10-09T12:56:55;16.90;99.90
7129;DHT22;3606;52.930;8.644;2023-10-09T12:59:21;16.90;99.90
7129;DHT22;3606;52.930;8.644;2023-10-09T13:01:49;17.00;99.90
7129;DHT22;3606;52.930;8.644;2023-10-09T13:04:19;17.00;99.90
7129;DHT22;3606;52.930;8.644;2023-10-09T13:06:48;17.20;99.90
7129;DHT22;3606;52.930;8.644;2023-10-09T13:09:18;17.20;99.90
7129;DHT22;3606;52.930;8.644;2023-10-09T13:11:58;17.40;99.90
7129;DHT22;3606;52.930;8.644;2023-10-09T13:14:28;17.40;99.90
7129;DHT22;3606;52.930;8.644;2023-10-09T13:16:56;17.40;99.90
7129;DHT22;3606;52.930;8.644;2023-10-09T13:19:22;17.30;99.90
7129;DHT22;3606;52.930;8.644;2023-10-09T13:21:49;17.30;99.90
7129;DHT22;3606;52.930;8.644;2023-10-09T13:24:15;17.30;99.90
7129;DHT22;3606;52.930;8.644;2023-10-09T13:26:42;17.20;99.90
7129;DHT22;3606;52.930;8.644;2023-10-09T13:29:10;17.20;99.90
7129;DHT22;3606;52.930;8.644;2023-10-09T13:31:37;17.20;99.90
7129;DHT22;3606;52.930;8.644;2023-10-09T13:34:06;17.10;99.90
7129;DHT22;3606;52.930;8.644;2023-10-09T13:36:35;17.00;99.90
7129;DHT22;3606;52.930;8.644;2023-10-09T13:39:07;17.00;99.90
7129;DHT22;3606;52.930;8.644;2023-10-09T13:41:57;17.00;99.90
7129;DHT22;3606;52.930;8.644;2023-10-09T13:44:27;17.00;99.90
7129;DHT22;3606;52.930;8.644;2023-10-09T13:46:57;17.00;99.90
7129;DHT22;3606;52.930;8.644;2023-10-09T13:49:23;16.90;99.90
7129;DHT22;3606;52.930;8.644;2023-10-09T13:51:50;16.90;99.90
7129;DHT22;3606;52.930;8.644;2023-10-09T13:54:16;16.80;99.90
7129;DHT22;3606;52.930;8.644;2023-10-09T13:57:08;16.70;99.90
7129;DHT22;3606;52.930;8.644;2023-10-09T13:59:36;16.70;99.90
7129;DHT22;3606;52.930;8.644;2023-10-09T14:02:03;16.70;99.90
7129;DHT22;3606;52.930;8.644;2023-10-09T14:04:35;16.60;99.90
7129;DHT22;3606;52.930;8.644;2023-10-09T14:07:00;16.60;99.90
7129;DHT22;3606;52.930;8.644;2023-10-09T14:09:28;16.60;99.90
7129;DHT22;3606;52.930;8.644;2023-10-09T14:12:01;16.50;99.90
7129;DHT22;3606;52.930;8.644;2023-10-09T14:14:42;16.50;99.90
7129;DHT22;3606;52.930;8.644;2023-10-09T14:17:21;16.50;99.90
7129;DHT22;3606;52.930;8.644;2023-10-09T14:19:55;16.40;99.90
7129;DHT22;3606;52.930;8.644;2023-10-09T14:22:23;16.40;99.90
7129;DHT22;3606;52.930;8.644;2023-10-09T14:24:54;16.20;99.90
7129;DHT22;3606;52.930;8.644;2023-10-09T14:27:24;16.20;99.90
7129;DHT22;3606;52.930;8.644;2023-10-09T14:30:00;16.20;99.90
7129;DHT22;3606;52.930;8.644;2023-10-09T14:32:26;16.20;99.90
7129;DHT22;3606;52.930;8.644;2023-10-09T14:34:59;16.20;99.90
7129;DHT22;3606;52.930;8.644;2023-10-09T14:37:28;16.30;99.90
7129;DHT22;3606;52.930;8.644;2023-10-09T14:39:56;16.30;99.90
7129;DHT22;3606;52.930;8.644;2023-10-09T14:42:21;16.30;99.90
7129;DHT22;3606;52.930;8.644;2023-10-09T14:44:49;16.30;99.90
7129;DHT22;3606;52.930;8.644;2023-10-09T14:47:15;16.30;99.90
7129;DHT22;3606;52.930;8.644;2023-10-09T14:49:41;16.20;99.90
7129;DHT22;3606;52.930;8.644;2023-10-09T14:52:12;16.30;99.90
7129;DHT22;3606;52.930;8.644;2023-10-09T14:54:42;16.30;99.90
7129;DHT22;3606;52.930;8.644;2023-10-09T14:57:07;16.20;99.90
7129;DHT22;3606;52.930;8.644;2023-10-09T14:59:33;16.40;99.90
7129;DHT22;3606;52.930;8.644;2023-10-09T15:01:59;16.30;99.90
7129;DHT22;3606;52.930;8.644;2023-10-09T15:04:25;16.30;99.90
7129;DHT22;3606;52.930;8.644;2023-10-09T15:06:51;16.40;99.90
7129;DHT22;3606;52.930;8.644;2023-10-09T15:09:17;16.40;99.90
7129;DHT22;3606;52.930;8.644;2023-10-09T15:11:54;16.40;99.90
7129;DHT22;3606;52.930;8.644;2023-10-09T15:14:20;16.40;99.90
7129;DHT22;3606;52.930;8.644;2023-10-09T15:16:46;16.30;99.90
7129;DHT22;3606;52.930;8.644;2023-10-09T15:19:13;16.40;99.90
7129;DHT22;3606;52.930;8.644;2023-10-09T15:21:39;16.40;99.90
7129;DHT22;3606;52.930;8.644;2023-10-09T15:24:15;16.40;99.90
7129;DHT22;3606;52.930;8.644;2023-10-09T15:26:48;16.40;99.90
7129;DHT22;3606;52.930;8.644;2023-10-09T15:29:24;16.40;99.90
7129;DHT22;3606;52.930;8.644;2023-10-09T15:31:58;16.40;99.90
7129;DHT22;3606;52.930;8.644;2023-10-09T15:34:30;16.40;99.90
7129;DHT22;3606;52.930;8.644;2023-10-09T15:36:56;16.30;99.90
7129;DHT22;3606;52.930;8.644;2023-10-09T15:39:22;16.30;99.90
7129;DHT22;3606;52.930;8.644;2023-10-09T15:41:49;16.30;99.90
7129;DHT22;3606;52.930;8.644;2023-10-09T15:44:16;16.40;99.90
7129;DHT22;3606;52.930;8.644;2023-10-09T15:46:42;16.40;99.90
7129;DHT22;3606;52.930;8.644;2023-10-09T15:49:11;16.40;99.90
7129;DHT22;3606;52.930;8.644;2023-10-09T15:51:39;16.30;99.90
7129;DHT22;3606;52.930;8.644;2023-10-09T15:54:05;16.30;99.90
7129;DHT22;3606;52.930;8.644;2023-10-09T15:56:30;16.20;99.90
7129;DHT22;3606;52.930;8.644;2023-10-09T15:58:56;16.20;99.90
7129;DHT22;3606;52.930;8.644;2023-10-09T16:01:22;16.20;99.90
7129;DHT22;3606;52.930;8.644;2023-10-09T16:03:48;16.20;99.90
7129;DHT22;3606;52.930;8.644;2023-10-09T16:06:16;16.20;99.90
7129;DHT22;3606;52.930;8.644;2023-10-09T16:08:43;16.10;99.90
7129;DHT22;3606;52.930;8.644;2023-10-09T16:11:20;16.10;99.90
7129;DHT22;3606;52.930;8.644;2023-10-09T16:13:49;16.00;99.90
7129;DHT22;3606;52.930;8.644;2023-10-09T16:16:24;16.00;99.90
7129;DHT22;3606;52.930;8.644;2023-10-09T16:18:50;16.00;99.90
7129;DHT22;3606;52.930;8.644;2023-10-09T16:21:16;16.00;99.90
7129;DHT22;3606;52.930;8.644;2023-10-09T16:23:42;15.90;99.90
7129;DHT22;3606;52.930;8.644;2023-10-09T16:26:07;15.90;99.90
7129;DHT22;3606;52.930;8.644;2023-10-09T16:28:34;15.90;99.90
7129;DHT22;3606;52.930;8.644;2023-10-09T16:31:00;15.90;99.90
7129;DHT22;3606;52.930;8.644;2023-10-09T16:33:25;15.90;99.90
7129;DHT22;3606;52.930;8.644;2023-10-09T16:35:52;15.80;99.90
7129;DHT22;3606;52.930;8.644;2023-10-09T16:38:20;15.90;99.90
7129;DHT22;3606;52.930;8.644;2023-10-09T16:40:52;15.90;99.90
7129;DHT22;3606;52.930;8.644;2023-10-09T16:43:19;15.90;99.90
7129;DHT22;3606;52.930;8.644;2023-10-09T16:45:44;15.90;99.90
7129;DHT22;3606;52.930;8.644;2023-10-09T16:48:10;15.80;99.90